Аэропорт: Орск. Орск

ICAO: UWOR

METAR:
2020-08-12 06:00:00
UWOR 120600Z 35004MPS CAVOK 20/11 Q1007 R25/CLRD65 NOSIG RMK QFE732/0976
METAR:
2020-08-12 04:46:00
TAF UWOR 120446Z 1206/1215 35007G14MPS 9999 SCT020CB BKN030 TX22/1212Z TN18/1215Z TEMPO 1206/1215 32003G08MPS